sensor_id;sensor_type;location;lat;lon;timestamp;P1;P2;P0
68198;PMS7003;55021;51.554;17.044;2023-04-24T00:12:00;25.25;22.50;15.00
68198;PMS7003;55021;51.554;17.044;2023-04-24T00:27:18;28.00;23.25;15.25
68198;PMS7003;55021;51.554;17.044;2023-04-24T00:43:29;28.75;28.00;17.25
68198;PMS7003;55021;51.554;17.044;2023-04-24T01:14:34;29.50;26.75;18.25
68198;PMS7003;55021;51.554;17.044;2023-04-24T01:29:49;25.75;24.75;16.00
68198;PMS7003;55021;51.554;17.044;2023-04-24T01:44:52;29.50;26.50;19.00
68198;PMS7003;55021;51.554;17.044;2023-04-24T01:59:55;26.25;25.00;15.00
68198;PMS7003;55021;51.554;17.044;2023-04-24T02:14:58;34.75;28.75;18.75
68198;PMS7003;55021;51.554;17.044;2023-04-24T02:30:01;32.50;30.25;18.00
68198;PMS7003;55021;51.554;17.044;2023-04-24T02:45:04;35.50;31.75;20.00
68198;PMS7003;55021;51.554;17.044;2023-04-24T03:00:07;36.75;32.00;19.50
68198;PMS7003;55021;51.554;17.044;2023-04-24T03:15:11;39.75;33.50;21.50
68198;PMS7003;55021;51.554;17.044;2023-04-24T03:30:14;45.25;35.75;23.75
68198;PMS7003;55021;51.554;17.044;2023-04-24T03:45:17;42.50;36.25;23.25
68198;PMS7003;55021;51.554;17.044;2023-04-24T04:00:20;46.25;36.00;23.50
68198;PMS7003;55021;51.554;17.044;2023-04-24T04:15:26;41.25;35.75;22.75
68198;PMS7003;55021;51.554;17.044;2023-04-24T04:30:29;48.00;38.00;23.25
68198;PMS7003;55021;51.554;17.044;2023-04-24T04:45:31;43.75;34.50;23.00
68198;PMS7003;55021;51.554;17.044;2023-04-24T05:00:34;48.75;39.00;26.00
68198;PMS7003;55021;51.554;17.044;2023-04-24T05:15:37;44.00;36.00;24.00
68198;PMS7003;55021;51.554;17.044;2023-04-24T05:30:39;85.67;71.33;46.00
68198;PMS7003;55021;51.554;17.044;2023-04-24T05:45:42;52.00;43.00;28.25
68198;PMS7003;55021;51.554;17.044;2023-04-24T06:00:44;41.50;35.00;23.75
68198;PMS7003;55021;51.554;17.044;2023-04-24T06:15:46;69.75;53.25;35.50
68198;PMS7003;55021;51.554;17.044;2023-04-24T06:30:49;38.50;34.25;23.00
68198;PMS7003;55021;51.554;17.044;2023-04-24T06:45:52;45.75;38.75;23.50
68198;PMS7003;55021;51.554;17.044;2023-04-24T07:00:54;45.75;37.75;24.50
68198;PMS7003;55021;51.554;17.044;2023-04-24T07:15:57;41.00;32.25;22.00
68198;PMS7003;55021;51.554;17.044;2023-04-24T07:31:00;35.50;32.25;21.25
68198;PMS7003;55021;51.554;17.044;2023-04-24T07:46:02;29.50;28.50;18.00
68198;PMS7003;55021;51.554;17.044;2023-04-24T08:01:05;27.50;27.50;18.00
68198;PMS7003;55021;51.554;17.044;2023-04-24T08:16:07;25.25;24.25;13.50
68198;PMS7003;55021;51.554;17.044;2023-04-24T08:31:09;20.00;19.00;12.75
68198;PMS7003;55021;51.554;17.044;2023-04-24T08:46:12;18.50;16.75;10.50
68198;PMS7003;55021;51.554;17.044;2023-04-24T09:01:17;26.00;22.75;14.00
68198;PMS7003;55021;51.554;17.044;2023-04-24T09:16:22;23.25;21.00;12.75
68198;PMS7003;55021;51.554;17.044;2023-04-24T09:31:26;19.25;18.00;12.00
68198;PMS7003;55021;51.554;17.044;2023-04-24T09:46:32;20.75;17.00;10.25
68198;PMS7003;55021;51.554;17.044;2023-04-24T10:01:35;20.75;19.00;11.75
68198;PMS7003;55021;51.554;17.044;2023-04-24T10:16:37;17.75;17.00;11.50
68198;PMS7003;55021;51.554;17.044;2023-04-24T10:31:41;15.75;14.75;9.00
68198;PMS7003;55021;51.554;17.044;2023-04-24T10:46:44;14.00;13.25;8.00
68198;PMS7003;55021;51.554;17.044;2023-04-24T11:01:52;14.00;13.75;7.00
68198;PMS7003;55021;51.554;17.044;2023-04-24T11:16:55;14.50;13.75;8.00
68198;PMS7003;55021;51.554;17.044;2023-04-24T11:32:00;17.00;15.75;8.25
68198;PMS7003;55021;51.554;17.044;2023-04-24T11:47:17;16.50;15.00;10.00
68198;PMS7003;55021;51.554;17.044;2023-04-24T12:02:24;16.50;16.25;10.00
68198;PMS7003;55021;51.554;17.044;2023-04-24T12:17:28;10.75;10.75;6.00
68198;PMS7003;55021;51.554;17.044;2023-04-24T12:32:32;15.75;13.50;7.50
68198;PMS7003;55021;51.554;17.044;2023-04-24T12:47:35;15.00;13.75;8.75
68198;PMS7003;55021;51.554;17.044;2023-04-24T13:02:37;20.00;16.00;9.25
68198;PMS7003;55021;51.554;17.044;2023-04-24T13:17:40;18.00;18.00;11.00
68198;PMS7003;55021;51.554;17.044;2023-04-24T13:32:42;15.00;15.00;9.25
68198;PMS7003;55021;51.554;17.044;2023-04-24T13:47:45;15.00;14.00;7.75
68198;PMS7003;55021;51.554;17.044;2023-04-24T14:02:47;11.75;11.75;6.00
68198;PMS7003;55021;51.554;17.044;2023-04-24T14:17:50;8.75;8.00;4.00
68198;PMS7003;55021;51.554;17.044;2023-04-24T14:32:57;7.50;7.00;4.00
68198;PMS7003;55021;51.554;17.044;2023-04-24T14:48:03;10.00;10.00;5.00
68198;PMS7003;55021;51.554;17.044;2023-04-24T15:03:06;11.50;11.50;5.75
68198;PMS7003;55021;51.554;17.044;2023-04-24T15:18:08;16.00;13.00;8.00
68198;PMS7003;55021;51.554;17.044;2023-04-24T15:33:12;8.75;8.75;4.75
68198;PMS7003;55021;51.554;17.044;2023-04-24T15:48:14;10.00;10.00;5.00
68198;PMS7003;55021;51.554;17.044;2023-04-24T16:03:17;10.75;9.50;4.25
68198;PMS7003;55021;51.554;17.044;2023-04-24T16:18:19;9.25;8.50;4.00
68198;PMS7003;55021;51.554;17.044;2023-04-24T16:33:21;8.00;8.00;3.50
68198;PMS7003;55021;51.554;17.044;2023-04-24T16:48:24;7.75;7.50;3.25
68198;PMS7003;55021;51.554;17.044;2023-04-24T17:03:27;10.25;8.50;4.00
68198;PMS7003;55021;51.554;17.044;2023-04-24T17:18:31;7.50;7.50;3.00
68198;PMS7003;55021;51.554;17.044;2023-04-24T17:48:39;8.75;7.00;3.00
68198;PMS7003;55021;51.554;17.044;2023-04-24T18:03:42;7.25;7.25;3.00
68198;PMS7003;55021;51.554;17.044;2023-04-24T18:18:45;17.25;15.00;7.00
68198;PMS7003;55021;51.554;17.044;2023-04-24T18:33:49;18.25;15.50;7.00
68198;PMS7003;55021;51.554;17.044;2023-04-24T18:48:51;16.75;14.75;8.00
68198;PMS7003;55021;51.554;17.044;2023-04-24T19:03:54;36.50;30.25;17.25
68198;PMS7003;55021;51.554;17.044;2023-04-24T19:18:56;31.00;27.25;17.50
68198;PMS7003;55021;51.554;17.044;2023-04-24T19:33:59;28.75;26.00;15.00
68198;PMS7003;55021;51.554;17.044;2023-04-24T19:49:01;33.00;28.00;17.75
68198;PMS7003;55021;51.554;17.044;2023-04-24T20:04:03;34.00;31.25;18.00
68198;PMS7003;55021;51.554;17.044;2023-04-24T20:19:06;38.25;34.25;20.50
68198;PMS7003;55021;51.554;17.044;2023-04-24T20:34:09;31.25;28.75;17.00
68198;PMS7003;55021;51.554;17.044;2023-04-24T20:49:11;34.75;31.50;18.50
68198;PMS7003;55021;51.554;17.044;2023-04-24T21:04:13;29.25;26.50;15.75
68198;PMS7003;55021;51.554;17.044;2023-04-24T21:19:16;31.00;25.25;15.00
68198;PMS7003;55021;51.554;17.044;2023-04-24T21:34:18;20.75;19.00;13.75
68198;PMS7003;55021;51.554;17.044;2023-04-24T21:49:21;19.50;16.00;9.00
68198;PMS7003;55021;51.554;17.044;2023-04-24T22:04:23;17.75;16.00;9.00
68198;PMS7003;55021;51.554;17.044;2023-04-24T22:19:26;18.75;15.50;8.25
68198;PMS7003;55021;51.554;17.044;2023-04-24T22:34:31;12.25;10.50;5.25
68198;PMS7003;55021;51.554;17.044;2023-04-24T22:49:33;12.00;11.75;6.00
68198;PMS7003;55021;51.554;17.044;2023-04-24T23:04:36;10.25;10.25;5.00
68198;PMS7003;55021;51.554;17.044;2023-04-24T23:19:38;10.75;10.00;5.00
68198;PMS7003;55021;51.554;17.044;2023-04-24T23:34:41;8.00;7.75;3.00
68198;PMS7003;55021;51.554;17.044;2023-04-24T23:49:43;7.00;7.00;2.00
